createdAt,value
2018-05-27T00:01:03.343Z,11.30
2018-05-27T00:03:31.530Z,13.95
2018-05-27T00:05:59.003Z,9.93
2018-05-27T00:08:26.426Z,10.07
2018-05-27T00:10:53.942Z,11.30
2018-05-27T00:13:21.420Z,10.63
2018-05-27T00:15:48.834Z,10.15
2018-05-27T00:18:16.350Z,9.70
2018-05-27T00:20:43.775Z,9.43
2018-05-27T00:23:11.190Z,9.45
2018-05-27T00:25:38.762Z,10.35
2018-05-27T00:28:06.186Z,10.18
2018-05-27T00:30:33.698Z,9.93
2018-05-27T00:33:01.171Z,10.27
2018-05-27T00:35:28.590Z,9.18
2018-05-27T00:37:56.010Z,10.13
2018-05-27T00:40:23.442Z,10.27
2018-05-27T00:42:51.627Z,9.88
2018-05-27T00:45:19.054Z,12.65
2018-05-27T00:47:46.470Z,10.48
2018-05-27T00:50:14.666Z,11.95
2018-05-27T00:52:42.978Z,10.00
2018-05-27T00:55:10.406Z,10.40
2018-05-27T00:57:37.831Z,14.07
2018-05-27T01:00:05.258Z,9.63
2018-05-27T01:02:33.438Z,10.05
2018-05-27T01:05:01.651Z,9.43
2018-05-27T01:07:29.132Z,9.95
2018-05-27T01:09:56.562Z,10.63
2018-05-27T01:12:24.806Z,9.63
2018-05-27T01:14:52.234Z,9.85
2018-05-27T01:17:20.419Z,10.25
2018-05-27T01:19:48.610Z,9.27
2018-05-27T01:22:16.815Z,9.23
2018-05-27T01:24:44.243Z,9.48
2018-05-27T01:27:11.758Z,9.98
2018-05-27T01:29:39.201Z,8.95
2018-05-27T01:32:06.607Z,9.93
2018-05-27T01:34:34.063Z,9.23
2018-05-27T01:37:01.535Z,9.10
2018-05-27T01:39:29.870Z,8.90
2018-05-27T01:41:58.056Z,9.65
2018-05-27T01:44:25.479Z,9.95
2018-05-27T01:46:52.947Z,9.93
2018-05-27T01:49:20.421Z,9.73
2018-05-27T01:51:47.901Z,10.52
2018-05-27T01:54:15.322Z,13.25
2018-05-27T01:56:43.544Z,9.95
2018-05-27T01:59:10.977Z,9.93
2018-05-27T02:01:38.389Z,9.70
2018-05-27T02:04:05.819Z,10.75
2018-05-27T02:06:34.038Z,9.15
2018-05-27T02:09:01.466Z,9.63
2018-05-27T02:11:28.945Z,9.95
2018-05-27T02:13:57.139Z,10.68
2018-05-27T02:16:24.558Z,9.50
2018-05-27T02:18:52.103Z,10.07
2018-05-27T02:21:19.574Z,9.32
2018-05-27T02:23:47.046Z,9.48
2018-05-27T02:26:14.520Z,10.75
2018-05-27T02:28:41.986Z,10.20
2018-05-27T02:31:09.411Z,9.07
2018-05-27T02:33:36.933Z,11.82
2018-05-27T02:36:04.354Z,9.70
2018-05-27T02:38:31.867Z,10.60
2018-05-27T02:40:59.314Z,9.00
2018-05-27T02:43:27.503Z,12.93
2018-05-27T02:45:55.714Z,9.07
2018-05-27T02:48:23.587Z,8.55
2018-05-27T02:50:51.059Z,10.13
2018-05-27T02:53:18.534Z,9.32
2018-05-27T02:55:45.964Z,9.05
2018-05-27T02:58:14.147Z,9.15
2018-05-27T03:00:41.656Z,9.77
2018-05-27T03:03:09.126Z,8.85
2018-05-27T03:05:36.550Z,9.13
2018-05-27T03:08:04.166Z,9.15
2018-05-27T03:10:31.595Z,9.02
2018-05-27T03:12:59.023Z,9.88
2018-05-27T03:15:26.449Z,10.32
2018-05-27T03:17:54.630Z,8.48
2018-05-27T03:20:22.847Z,8.93
2018-05-27T03:22:50.262Z,10.48
2018-05-27T03:25:17.687Z,9.27
2018-05-27T03:27:45.110Z,8.88
2018-05-27T03:30:12.534Z,10.80
2018-05-27T03:32:39.964Z,8.38
2018-05-27T03:35:08.145Z,8.55
2018-05-27T03:37:36.474Z,8.57
2018-05-27T03:40:03.943Z,10.35
2018-05-27T03:42:31.408Z,9.48
2018-05-27T03:44:58.876Z,9.18
2018-05-27T03:47:26.290Z,8.23
2018-05-27T03:49:53.718Z,8.27
2018-05-27T03:52:21.190Z,10.05
2018-05-27T03:54:48.610Z,8.32
2018-05-27T03:57:16.126Z,8.35
2018-05-27T03:59:43.558Z,8.63
2018-05-27T04:02:11.074Z,8.50
2018-05-27T04:05:02.094Z,13.65
2018-05-27T04:07:42.162Z,9.68
2018-05-27T04:10:09.634Z,9.00
2018-05-27T04:12:37.098Z,8.50
2018-05-27T04:15:04.518Z,8.25
2018-05-27T04:17:31.944Z,8.43
2018-05-27T04:19:59.370Z,8.07
2018-05-27T04:22:27.593Z,10.38
2018-05-27T04:24:55.019Z,7.93
2018-05-27T04:27:22.535Z,7.78
2018-05-27T04:29:49.962Z,8.38
2018-05-27T04:32:17.386Z,8.00
2018-05-27T04:34:44.838Z,7.85
2018-05-27T04:37:12.258Z,8.55
2018-05-27T04:39:40.710Z,8.15
2018-05-27T04:42:08.171Z,9.13
2018-05-27T04:44:35.590Z,8.18
2018-05-27T04:47:03.107Z,8.73
2018-05-27T04:49:30.527Z,9.55
2018-05-27T04:51:58.722Z,8.18
2018-05-27T04:54:26.235Z,9.20
2018-05-27T04:56:53.708Z,8.05
2018-05-27T04:59:21.126Z,7.70
2018-05-27T05:01:48.649Z,7.82
2018-05-27T05:04:16.069Z,8.50
2018-05-27T05:06:43.588Z,8.95
2018-05-27T05:09:11.058Z,8.02
2018-05-27T05:11:38.527Z,7.40
2018-05-27T05:14:05.950Z,7.78
2018-05-27T05:16:33.371Z,8.15
2018-05-27T05:19:00.854Z,7.45
2018-05-27T05:21:28.289Z,11.10
2018-05-27T05:23:55.714Z,8.63
2018-05-27T05:26:23.142Z,8.40
2018-05-27T05:28:50.610Z,10.02
2018-05-27T05:31:18.087Z,8.30
2018-05-27T05:33:45.505Z,8.20
2018-05-27T05:36:12.934Z,7.95
2018-05-27T05:38:40.386Z,13.82
2018-05-27T05:41:07.861Z,8.05
2018-05-27T05:43:35.354Z,10.95
2018-05-27T05:46:02.770Z,7.93
2018-05-27T05:48:30.986Z,8.00
2018-05-27T05:50:58.454Z,7.70
2018-05-27T05:53:25.866Z,7.60
2018-05-27T05:55:53.294Z,8.20
2018-05-27T05:58:20.758Z,8.32
2018-05-27T06:00:48.230Z,7.50
2018-05-27T06:03:15.654Z,7.25
2018-05-27T06:05:43.171Z,7.20
2018-05-27T06:08:10.594Z,11.35
2018-05-27T06:10:39.528Z,8.68
2018-05-27T06:13:07.719Z,6.90
2018-05-27T06:15:35.198Z,8.23
2018-05-27T06:18:02.670Z,7.43
2018-05-27T06:20:30.141Z,6.75
2018-05-27T06:22:57.565Z,6.55
2018-05-27T06:25:25.082Z,7.18
2018-05-27T06:27:52.570Z,7.07
2018-05-27T06:30:20.037Z,8.10
2018-05-27T06:32:47.463Z,7.45
2018-05-27T06:35:15.683Z,7.35
2018-05-27T06:37:43.108Z,7.55
2018-05-27T06:40:10.619Z,6.97
2018-05-27T06:42:38.043Z,7.65
2018-05-27T06:45:05.562Z,8.88
2018-05-27T06:47:33.030Z,7.32
2018-05-27T06:50:00.445Z,6.57
2018-05-27T06:52:27.995Z,10.20
2018-05-27T06:54:55.390Z,6.87
2018-05-27T06:57:23.624Z,6.65
2018-05-27T06:59:51.050Z,7.22
2018-05-27T07:02:18.479Z,7.00
2018-05-27T07:04:45.999Z,7.97
2018-05-27T07:07:14.107Z,7.05
2018-05-27T07:09:41.599Z,7.18
2018-05-27T07:12:09.066Z,7.57
2018-05-27T07:14:36.483Z,6.80
2018-05-27T07:17:03.909Z,8.27
2018-05-27T07:19:31.326Z,8.40
2018-05-27T07:21:58.749Z,9.32
2018-05-27T07:24:26.166Z,8.50
2018-05-27T07:26:53.679Z,7.40
2018-05-27T07:29:21.095Z,6.70
2018-05-27T07:31:48.518Z,6.30
2018-05-27T07:34:15.978Z,6.95
2018-05-27T07:36:43.398Z,6.50
2018-05-27T07:39:10.822Z,8.43
2018-05-27T07:41:38.286Z,6.68
2018-05-27T07:44:05.710Z,6.55
2018-05-27T07:46:33.137Z,6.72
2018-05-27T07:49:00.565Z,6.82
2018-05-27T07:51:28.779Z,7.22
2018-05-27T07:53:56.250Z,10.30
2018-05-27T07:56:23.675Z,7.12
2018-05-27T07:58:51.198Z,6.97
2018-05-27T08:01:18.662Z,7.80
2018-05-27T08:03:46.090Z,7.45
2018-05-27T08:06:13.602Z,7.50
2018-05-27T08:08:41.078Z,7.07
2018-05-27T08:11:08.498Z,8.48
2018-05-27T08:13:36.010Z,8.05
2018-05-27T08:16:03.481Z,8.60
2018-05-27T08:18:31.650Z,8.55
2018-05-27T08:20:59.854Z,6.75
2018-05-27T08:23:27.326Z,6.68
2018-05-27T08:25:54.798Z,6.82
2018-05-27T08:28:22.273Z,6.65
2018-05-27T08:30:49.686Z,7.40
2018-05-27T08:33:18.623Z,7.40
2018-05-27T08:35:46.802Z,8.32
2018-05-27T08:38:15.014Z,7.05
2018-05-27T08:40:42.434Z,6.70
2018-05-27T08:43:09.862Z,7.47
2018-05-27T08:45:37.327Z,7.05
2018-05-27T08:48:04.789Z,7.57
2018-05-27T08:50:32.259Z,7.87
2018-05-27T08:52:59.686Z,8.38
2018-05-27T08:55:27.199Z,7.75
2018-05-27T08:57:54.670Z,6.15
2018-05-27T09:00:22.090Z,6.18
2018-05-27T09:02:49.615Z,8.40
2018-05-27T09:05:17.031Z,6.45
2018-05-27T09:07:44.454Z,6.45
2018-05-27T09:10:11.881Z,7.78
2018-05-27T09:12:39.298Z,6.43
2018-05-27T09:15:06.775Z,6.15
2018-05-27T09:17:34.171Z,9.93
2018-05-27T09:20:01.606Z,8.27
2018-05-27T09:22:29.062Z,6.72
2018-05-27T09:24:56.540Z,7.87
2018-05-27T09:27:24.003Z,6.15
2018-05-27T09:29:51.430Z,5.47
2018-05-27T09:32:18.940Z,7.70
2018-05-27T09:34:46.421Z,6.05
2018-05-27T09:37:13.885Z,5.87
2018-05-27T09:39:41.310Z,6.22
2018-05-27T09:42:08.827Z,8.13
2018-05-27T09:44:36.251Z,6.15
2018-05-27T09:47:03.763Z,5.82
2018-05-27T09:49:31.230Z,5.10
2018-05-27T09:51:58.650Z,3.85
2018-05-27T09:54:26.170Z,4.10
2018-05-27T09:56:53.593Z,5.00
2018-05-27T09:59:21.114Z,5.80
2018-05-27T10:01:48.544Z,4.32
2018-05-27T10:04:16.052Z,4.22
2018-05-27T10:06:43.837Z,3.67
2018-05-27T10:09:11.300Z,4.10
2018-05-27T10:11:38.726Z,4.55
2018-05-27T10:14:06.235Z,4.50
2018-05-27T10:16:33.657Z,5.05
2018-05-27T10:19:01.136Z,7.43
2018-05-27T10:21:28.542Z,4.32
2018-05-27T10:23:56.015Z,4.80
2018-05-27T10:26:23.442Z,4.03
2018-05-27T10:28:52.367Z,4.53
2018-05-27T10:31:20.561Z,5.75
2018-05-27T10:33:48.767Z,5.00
2018-05-27T10:36:16.238Z,4.95
2018-05-27T10:38:43.702Z,4.43
2018-05-27T10:41:11.131Z,3.95
2018-05-27T10:43:38.642Z,4.25
2018-05-27T10:46:06.070Z,4.18
2018-05-27T10:48:33.581Z,4.55
2018-05-27T10:51:01.059Z,4.50
2018-05-27T10:53:28.478Z,4.03
2018-05-27T10:55:55.998Z,5.35
2018-05-27T10:58:23.462Z,3.72
2018-05-27T11:00:50.890Z,5.78
2018-05-27T11:03:18.306Z,4.10
2018-05-27T11:05:45.792Z,6.37
2018-05-27T11:08:13.238Z,3.42
2018-05-27T11:10:40.662Z,4.30
2018-05-27T11:13:08.084Z,3.50
2018-05-27T11:15:35.542Z,3.85
2018-05-27T11:18:03.015Z,4.05
2018-05-27T11:20:30.438Z,3.42
2018-05-27T11:22:57.860Z,3.25
2018-05-27T11:25:25.278Z,3.50
2018-05-27T11:27:52.699Z,5.40
2018-05-27T11:30:20.126Z,3.25
2018-05-27T11:32:47.630Z,3.53
2018-05-27T11:35:15.108Z,4.40
2018-05-27T11:37:42.515Z,4.30
2018-05-27T11:40:11.443Z,3.53
2018-05-27T11:42:39.638Z,3.50
2018-05-27T11:45:08.054Z,3.80
2018-05-27T11:47:35.486Z,3.25
2018-05-27T11:50:03.675Z,3.95
2018-05-27T11:52:31.927Z,3.97
2018-05-27T11:54:59.402Z,4.25
2018-05-27T11:57:26.800Z,3.80
2018-05-27T11:59:54.306Z,3.50
2018-05-27T12:02:21.774Z,4.37
2018-05-27T12:04:49.247Z,3.40
2018-05-27T12:07:16.670Z,3.78
2018-05-27T12:09:45.774Z,3.65
2018-05-27T12:12:13.781Z,4.07
2018-05-27T12:14:41.994Z,4.10
2018-05-27T12:17:09.466Z,5.65
2018-05-27T12:19:36.942Z,5.32
2018-05-27T12:22:04.370Z,4.18
2018-05-27T12:24:32.554Z,3.83
2018-05-27T12:27:00.785Z,5.20
2018-05-27T12:29:28.197Z,4.50
2018-05-27T12:31:55.727Z,3.72
2018-05-27T12:34:23.142Z,3.53
2018-05-27T12:36:50.712Z,4.10
2018-05-27T12:39:18.126Z,4.68
2018-05-27T12:41:45.555Z,3.20
2018-05-27T12:44:12.978Z,4.05
2018-05-27T12:46:40.435Z,6.25
2018-05-27T12:49:08.042Z,4.03
2018-05-27T12:51:35.574Z,4.50
2018-05-27T12:54:03.048Z,4.78
2018-05-27T12:56:30.475Z,4.00
2018-05-27T12:58:59.426Z,3.75
2018-05-27T13:01:26.894Z,3.42
2018-05-27T13:03:54.310Z,3.33
2018-05-27T13:06:21.730Z,4.55
2018-05-27T13:08:49.198Z,5.07
2018-05-27T13:11:16.629Z,4.22
2018-05-27T13:13:44.056Z,4.32
2018-05-27T13:16:11.467Z,3.78
2018-05-27T13:18:38.954Z,3.47
2018-05-27T13:21:07.238Z,2.97
2018-05-27T13:23:35.431Z,3.33
2018-05-27T13:26:03.646Z,6.00
2018-05-27T13:28:31.113Z,4.82
2018-05-27T13:30:58.530Z,3.80
2018-05-27T13:33:25.962Z,3.10
2018-05-27T13:35:53.378Z,3.37
2018-05-27T13:38:22.306Z,3.40
2018-05-27T13:40:49.823Z,3.35
2018-05-27T13:43:17.287Z,5.97
2018-05-27T13:45:44.738Z,3.33
2018-05-27T13:48:12.201Z,3.65
2018-05-27T13:50:39.678Z,5.25
2018-05-27T13:53:07.108Z,3.40
2018-05-27T13:55:35.338Z,3.62
2018-05-27T13:58:02.757Z,3.62
2018-05-27T14:00:31.006Z,3.10
2018-05-27T14:02:58.454Z,5.10
2018-05-27T14:05:25.870Z,3.90
2018-05-27T14:07:53.399Z,3.25
2018-05-27T14:10:20.842Z,5.47
2018-05-27T14:12:48.341Z,3.65
2018-05-27T14:15:15.755Z,4.05
2018-05-27T14:17:44.686Z,3.35
2018-05-27T14:20:12.877Z,5.00
2018-05-27T14:22:41.082Z,3.95
2018-05-27T14:25:08.556Z,3.85
2018-05-27T14:27:35.930Z,3.83
2018-05-27T14:30:03.386Z,3.85
2018-05-27T14:32:30.866Z,4.07
2018-05-27T14:34:58.283Z,8.43
2018-05-27T14:37:25.710Z,4.03
2018-05-27T14:39:53.134Z,7.93
2018-05-27T14:42:21.331Z,4.60
2018-05-27T14:44:49.569Z,4.55
2018-05-27T14:47:16.963Z,4.28
2018-05-27T14:49:44.479Z,10.52
2018-05-27T14:52:11.898Z,7.35
2018-05-27T14:54:39.332Z,4.57
2018-05-27T14:57:06.746Z,5.12
2018-05-27T14:59:34.256Z,4.10
2018-05-27T15:02:01.722Z,4.55
2018-05-27T15:04:29.196Z,5.75
2018-05-27T15:06:56.663Z,13.93
2018-05-27T15:09:24.140Z,4.93
2018-05-27T15:11:52.297Z,4.15
2018-05-27T15:14:20.490Z,3.92
2018-05-27T15:16:48.785Z,6.68
2018-05-27T15:19:16.210Z,4.37
2018-05-27T15:21:43.638Z,3.97
2018-05-27T15:24:11.111Z,4.22
2018-05-27T15:26:38.527Z,3.85
2018-05-27T15:29:05.950Z,4.82
2018-05-27T15:31:33.376Z,4.25
2018-05-27T15:34:00.802Z,3.87
2018-05-27T15:36:28.251Z,7.12
2018-05-27T15:38:55.673Z,7.40
2018-05-27T15:41:23.193Z,4.30
2018-05-27T15:43:50.620Z,7.85
2018-05-27T15:46:18.134Z,7.03
2018-05-27T15:48:45.561Z,3.95
2018-05-27T15:51:12.982Z,6.72
2018-05-27T15:53:40.414Z,6.55
2018-05-27T15:56:08.598Z,4.10
2018-05-27T15:58:36.794Z,7.65
2018-05-27T16:01:04.994Z,4.90
2018-05-27T16:03:32.468Z,5.47
2018-05-27T16:05:59.943Z,4.37
2018-05-27T16:08:27.410Z,4.22
2018-05-27T16:10:54.880Z,5.22
2018-05-27T16:13:22.306Z,6.78
2018-05-27T16:15:49.721Z,7.75
2018-05-27T16:18:17.186Z,5.25
2018-05-27T16:20:44.607Z,5.53
2018-05-27T16:23:12.027Z,4.37
2018-05-27T16:25:39.451Z,5.68
2018-05-27T16:28:07.880Z,7.22
2018-05-27T16:30:35.358Z,7.43
2018-05-27T16:33:02.778Z,5.22
2018-05-27T16:35:30.297Z,7.72
2018-05-27T16:37:57.763Z,5.25
2018-05-27T16:40:25.191Z,6.80
2018-05-27T16:42:53.386Z,8.95
2018-05-27T16:45:20.793Z,7.53
2018-05-27T16:47:48.263Z,4.62
2018-05-27T16:50:15.690Z,6.87
2018-05-27T16:52:43.262Z,7.30
2018-05-27T16:55:10.669Z,7.43
2018-05-27T16:57:38.247Z,11.88
2018-05-27T17:00:05.714Z,14.85
2018-05-27T17:02:33.138Z,17.08
2018-05-27T17:05:00.654Z,13.40
2018-05-27T17:07:28.126Z,11.55
2018-05-27T17:09:55.594Z,15.07
2018-05-27T17:12:23.032Z,10.40
2018-05-27T17:14:50.450Z,8.13
2018-05-27T17:17:17.902Z,13.85
2018-05-27T17:19:45.327Z,8.80
2018-05-27T17:22:12.754Z,7.78
2018-05-27T17:24:40.226Z,16.42
2018-05-27T17:27:07.660Z,12.13
2018-05-27T17:29:35.846Z,8.68
2018-05-27T17:32:03.343Z,7.65
2018-05-27T17:34:30.767Z,10.15
2018-05-27T17:36:58.991Z,9.02
2018-05-27T17:39:26.461Z,9.93
2018-05-27T17:41:53.942Z,8.23
2018-05-27T17:44:21.398Z,15.25
2018-05-27T17:46:48.817Z,11.52
2018-05-27T17:49:16.241Z,8.95
2018-05-27T17:51:43.707Z,10.02
2018-05-27T17:54:11.135Z,9.35
2018-05-27T17:56:39.370Z,17.95
2018-05-27T17:59:06.798Z,13.95
2018-05-27T18:01:34.211Z,7.55
2018-05-27T18:04:01.670Z,8.70
2018-05-27T18:06:29.142Z,6.82
2018-05-27T18:08:56.570Z,8.65
2018-05-27T18:11:24.081Z,8.00
2018-05-27T18:13:51.550Z,5.87
2018-05-27T18:16:19.020Z,7.20
2018-05-27T18:18:46.490Z,6.30
2018-05-27T18:21:14.034Z,5.57
2018-05-27T18:23:42.331Z,7.40
2018-05-27T18:26:09.679Z,16.50
2018-05-27T18:28:37.186Z,15.73
2018-05-27T18:31:04.659Z,15.73
2018-05-27T18:33:32.126Z,10.95
2018-05-27T18:35:59.610Z,7.87
2018-05-27T18:38:27.077Z,10.95
2018-05-27T18:40:54.539Z,5.53
2018-05-27T18:43:21.965Z,9.48
2018-05-27T18:45:49.479Z,8.82
2018-05-27T18:48:16.947Z,6.97
2018-05-27T18:50:44.417Z,8.57
2018-05-27T18:53:11.886Z,7.57
2018-05-27T18:55:39.307Z,9.30
2018-05-27T18:58:06.822Z,6.35
2018-05-27T19:00:34.404Z,12.18
2018-05-27T19:03:01.839Z,6.70
2018-05-27T19:05:29.250Z,7.47
2018-05-27T19:07:56.665Z,12.00
2018-05-27T19:10:24.861Z,13.70
2018-05-27T19:12:53.058Z,8.55
2018-05-27T19:15:21.243Z,5.45
2018-05-27T19:17:49.429Z,7.35
2018-05-27T19:20:17.639Z,6.87
2018-05-27T19:22:45.111Z,7.85
2018-05-27T19:25:12.552Z,5.78
2018-05-27T19:27:40.736Z,5.07
2018-05-27T19:30:08.239Z,6.15
2018-05-27T19:32:35.711Z,6.75
2018-05-27T19:35:03.137Z,13.88
2018-05-27T19:37:30.553Z,10.25
2018-05-27T19:39:57.986Z,11.10
2018-05-27T19:42:26.222Z,7.93
2018-05-27T19:44:54.366Z,9.73
2018-05-27T19:47:22.555Z,12.50
2018-05-27T19:49:50.751Z,8.68
2018-05-27T19:52:18.234Z,5.95
2018-05-27T19:54:45.731Z,6.05
2018-05-27T19:57:13.118Z,6.95
2018-05-27T19:59:40.646Z,6.40
2018-05-27T20:02:08.254Z,7.35
2018-05-27T20:04:35.684Z,7.82
2018-05-27T20:07:03.107Z,7.50
2018-05-27T20:09:30.623Z,8.30
2018-05-27T20:11:58.094Z,10.35
2018-05-27T20:14:25.522Z,8.65
2018-05-27T20:16:53.035Z,8.30
2018-05-27T20:19:20.471Z,6.87
2018-05-27T20:21:48.659Z,7.95
2018-05-27T20:24:16.858Z,10.73
2018-05-27T20:26:45.066Z,8.38
2018-05-27T20:29:12.543Z,7.03
2018-05-27T20:31:40.008Z,7.85
2018-05-27T20:34:07.438Z,9.60
2018-05-27T20:36:35.622Z,6.85
2018-05-27T20:39:03.045Z,6.72
2018-05-27T20:41:30.470Z,6.60
2018-05-27T20:43:58.683Z,7.97
2018-05-27T20:46:26.102Z,11.40
2018-05-27T20:48:53.530Z,6.45
2018-05-27T20:51:20.950Z,8.98
2018-05-27T20:53:48.473Z,6.47
2018-05-27T20:56:15.930Z,8.73
2018-05-27T20:58:43.401Z,8.10
2018-05-27T21:01:10.870Z,7.15
2018-05-27T21:03:38.346Z,8.68
2018-05-27T21:06:05.811Z,6.82
2018-05-27T21:08:33.386Z,6.90
2018-05-27T21:11:00.802Z,6.37
2018-05-27T21:13:28.218Z,9.18
2018-05-27T21:15:55.645Z,7.53
2018-05-27T21:18:23.162Z,7.40
2018-05-27T21:20:50.589Z,10.32
2018-05-27T21:23:18.010Z,8.00
2018-05-27T21:25:45.474Z,7.97
2018-05-27T21:28:12.890Z,7.32
2018-05-27T21:30:40.318Z,8.50
2018-05-27T21:33:07.777Z,7.37
2018-05-27T21:35:35.211Z,8.75
2018-05-27T21:38:03.434Z,8.55
2018-05-27T21:40:30.856Z,8.88
2018-05-27T21:42:58.275Z,8.00
2018-05-27T21:45:25.701Z,7.45
2018-05-27T21:47:53.216Z,8.43
2018-05-27T21:50:20.656Z,7.65
2018-05-27T21:52:48.862Z,11.55
2018-05-27T21:55:16.338Z,7.12
2018-05-27T21:57:43.807Z,7.82
2018-05-27T22:00:11.283Z,7.43
2018-05-27T22:02:38.698Z,6.72
2018-05-27T22:05:07.651Z,9.27
2018-05-27T22:07:35.090Z,6.12
2018-05-27T22:10:03.278Z,9.52
2018-05-27T22:12:31.464Z,5.22
2018-05-27T22:14:59.680Z,8.70
2018-05-27T22:17:27.100Z,5.32
2018-05-27T22:19:54.633Z,4.90
2018-05-27T22:22:22.088Z,6.25
2018-05-27T22:24:49.518Z,6.22
2018-05-27T22:27:17.030Z,5.97
2018-05-27T22:29:44.453Z,3.75
2018-05-27T22:32:11.971Z,7.57
2018-05-27T22:34:39.438Z,9.23
2018-05-27T22:37:07.011Z,5.07
2018-05-27T22:39:34.486Z,4.10
2018-05-27T22:42:01.915Z,8.52
2018-05-27T22:44:29.419Z,3.80
2018-05-27T22:46:56.894Z,5.22
2018-05-27T22:49:24.327Z,5.97
2018-05-27T22:51:52.556Z,4.12
2018-05-27T22:54:19.978Z,4.00
2018-05-27T22:56:47.402Z,7.40
2018-05-27T22:59:14.831Z,3.85
2018-05-27T23:01:43.007Z,5.35
2018-05-27T23:04:10.434Z,7.05
2018-05-27T23:06:37.878Z,3.35
2018-05-27T23:09:05.347Z,6.25
2018-05-27T23:11:32.818Z,6.62
2018-05-27T23:14:00.250Z,4.35
2018-05-27T23:16:27.758Z,7.62
2018-05-27T23:18:55.178Z,8.10
2018-05-27T23:21:22.610Z,4.45
2018-05-27T23:23:50.066Z,6.28
2018-05-27T23:26:17.639Z,6.40
2018-05-27T23:28:45.054Z,2.70
2018-05-27T23:31:13.990Z,3.47
2018-05-27T23:33:41.482Z,7.22
2018-05-27T23:36:08.943Z,6.18
2018-05-27T23:38:36.426Z,5.75
2018-05-27T23:41:03.861Z,4.68
2018-05-27T23:43:32.047Z,5.53
2018-05-27T23:46:00.238Z,8.30
2018-05-27T23:48:28.422Z,6.28
2018-05-27T23:50:56.615Z,5.95
2018-05-27T23:53:24.826Z,3.15
2018-05-27T23:55:52.297Z,5.12
2018-05-27T23:58:19.762Z,3.33
